Arnett, Texas
Current Conditions -  °F | °C
As of 3:55 PM on Saturday 25 Oct 2014 (Local Time) from KGOP Reporting Station
Clear Clear  
Wind Chill: 31°   Ceiling: Unl
Heat Index: 31°   Visibility: 10mi
Dew Point: 15°   Wind: 3mph
Humidity: 38%   Direction: 160°SSE
Pressure: 30.11"   Gusts: NA
Location:  31.392°N, 97.7452°W
Report Text: KGOP 252055Z AUTO 16003KT 10SM CLR 31/15 A3011 RMK AO2
Loading
Personal Weather Stations






























Interactive Weather Map
Tropical Storm Tracking
New forecast layout! Learn more

10-Day Weather Forecast

Advertisements
Track Severe Weather on mobile